Time;durP1;ratioP1;P1;durP2;ratioP2;P2;SDS_P1;SDS_P2;PMS_P1;PMS_P2;Temp;Humidity;BMP_temperature;BMP_pressure;BME280_temperature;BME280_humidity;BME280_pressure;Samples;Min_cycle;Max_cycle;Signal;HPM_P1;HPM_P2
2023/03/09 05:30:11;;;;;;;17.75;3.58;;;12.20;83.30;;;;;;6124547;23;20123;-81
2023/03/09 05:32:36;;;;;;;19.50;3.50;;;12.20;83.20;;;;;;6097850;23;20083;-82
2023/03/09 05:35:02;;;;;;;18.00;3.60;;;12.30;82.90;;;;;;6128613;23;20077;-82
2023/03/09 05:37:27;;;;;;;13.05;3.05;;;12.30;82.90;;;;;;6103705;23;20792;-79
2023/03/09 05:39:53;;;;;;;22.88;3.67;;;12.30;82.70;;;;;;6129278;23;20065;-79
2023/03/09 05:42:19;;;;;;;20.13;3.47;;;12.30;82.60;;;;;;6129630;23;20041;-78
2023/03/09 05:44:45;;;;;;;19.58;4.03;;;12.30;82.50;;;;;;6129231;23;20077;-79
2023/03/09 05:47:11;;;;;;;21.05;3.55;;;12.30;82.60;;;;;;6128772;23;20018;-77
2023/03/09 05:49:37;;;;;;;22.20;4.63;;;12.30;82.50;;;;;;6129204;23;20085;-79
2023/03/09 05:52:02;;;;;;;25.23;4.25;;;12.30;82.50;;;;;;6129344;23;20100;-79
2023/03/09 05:54:29;;;;;;;25.35;3.90;;;12.30;82.60;;;;;;6128188;23;20021;-78
2023/03/09 05:56:54;;;;;;;17.13;3.45;;;12.30;82.50;;;;;;6100616;23;20046;-78
2023/03/09 05:59:21;;;;;;;12.43;3.10;;;12.30;82.40;;;;;;6103445;23;20029;-76
2023/03/09 06:01:46;;;;;;;13.10;2.92;;;12.20;82.70;;;;;;6126981;23;20002;-76
2023/03/09 06:04:12;;;;;;;13.73;3.75;;;12.20;82.70;;;;;;6127786;23;20009;-78
2023/03/09 06:06:38;;;;;;;24.25;3.53;;;12.20;82.80;;;;;;6128771;23;20013;-78
2023/03/09 06:09:03;;;;;;;20.63;3.80;;;12.20;82.80;;;;;;6129094;23;20012;-78
2023/03/09 06:11:32;;;;;;;19.45;3.75;;;12.20;82.80;;;;;;6103867;23;20038;-79
2023/03/09 06:13:57;;;;;;;21.65;4.63;;;12.30;82.90;;;;;;6103425;23;20014;-78
2023/03/09 06:16:26;;;;;;;25.30;4.20;;;12.30;83.00;;;;;;6127105;23;20014;-79
2023/03/09 06:18:55;;;;;;;16.98;3.53;;;12.30;82.90;;;;;;6103768;23;20006;-81
2023/03/09 06:21:33;;;;;;;20.98;3.63;;;12.30;82.90;;;;;;6105438;23;20009;-79
2023/03/09 06:23:59;;;;;;;22.17;5.03;;;12.30;82.90;;;;;;6100973;23;20006;-79
2023/03/09 06:26:25;;;;;;;23.70;4.03;;;12.30;83.00;;;;;;6127898;23;20276;-79
2023/03/09 06:28:53;;;;;;;19.33;3.13;;;12.30;83.10;;;;;;6127372;23;20002;-78
2023/03/09 06:31:19;;;;;;;21.02;3.50;;;12.30;83.10;;;;;;6111354;23;20429;-78
2023/03/09 06:33:46;;;;;;;14.90;4.47;;;12.30;82.90;;;;;;6128323;23;20014;-76
2023/03/09 06:36:14;;;;;;;15.18;2.70;;;12.30;83.00;;;;;;6127154;23;20429;-77
2023/03/09 06:38:40;;;;;;;27.73;4.72;;;12.30;83.10;;;;;;6127823;23;20008;-77
2023/03/09 06:41:05;;;;;;;28.23;4.55;;;12.30;83.30;;;;;;6128244;23;20001;-78
2023/03/09 06:43:31;;;;;;;25.48;3.30;;;12.30;83.30;;;;;;6128515;23;20002;-77
2023/03/09 06:45:57;;;;;;;18.65;3.42;;;12.30;83.40;;;;;;6127113;23;20413;-77
2023/03/09 06:48:22;;;;;;;30.45;6.13;;;12.40;83.30;;;;;;6127579;23;20006;-78
2023/03/09 06:50:48;;;;;;;13.82;3.60;;;12.30;83.30;;;;;;6127429;23;20102;-78
2023/03/09 06:53:14;;;;;;;12.70;3.35;;;12.40;83.30;;;;;;6128397;23;20002;-79
2023/03/09 06:55:40;;;;;;;20.00;4.13;;;12.40;83.40;;;;;;6126167;23;20020;-82
2023/03/09 06:58:06;;;;;;;16.65;2.97;;;12.50;83.10;;;;;;6127979;23;20029;-78
2023/03/09 07:00:37;;;;;;;18.23;3.58;;;12.50;83.10;;;;;;6128383;23;20002;-78
2023/03/09 07:03:06;;;;;;;22.33;4.15;;;12.50;83.10;;;;;;6128531;23;20065;-78
2023/03/09 07:05:32;;;;;;;20.27;4.63;;;12.50;83.10;;;;;;6129027;23;20056;-78
2023/03/09 07:07:57;;;;;;;19.67;3.70;;;12.60;83.20;;;;;;6127021;23;20006;-78
2023/03/09 07:10:23;;;;;;;12.18;3.15;;;12.60;83.10;;;;;;6127774;23;20006;-79
2023/03/09 07:12:49;;;;;;;13.35;2.70;;;12.70;83.10;;;;;;6122973;23;20016;-79
2023/03/09 07:15:15;;;;;;;19.42;3.45;;;12.70;83.00;;;;;;6123493;23;20001;-80
2023/03/09 07:17:42;;;;;;;25.73;4.93;;;12.80;82.80;;;;;;6122210;23;20078;-80
2023/03/09 07:20:09;;;;;;;24.83;4.18;;;12.80;82.70;;;;;;6125412;23;20527;-80
2023/03/09 07:22:35;;;;;;;16.52;3.97;;;12.80;82.70;;;;;;6126651;23;20319;-79
2023/03/09 07:25:01;;;;;;;27.00;4.00;;;12.90;82.60;;;;;;6126544;23;20092;-83
2023/03/09 07:27:26;;;;;;;20.67;4.07;;;12.90;82.60;;;;;;6126691;23;20010;-79
2023/03/09 07:29:52;;;;;;;20.42;4.57;;;12.90;82.70;;;;;;6126755;23;20445;-79
2023/03/09 07:32:18;;;;;;;24.45;4.05;;;12.90;82.60;;;;;;6127816;23;20018;-79
2023/03/09 07:34:44;;;;;;;20.98;4.13;;;12.90;82.60;;;;;;6112659;23;20017;-80
2023/03/09 07:37:10;;;;;;;28.60;4.63;;;12.90;82.50;;;;;;6127577;23;20002;-80
2023/03/09 07:39:35;;;;;;;19.75;3.65;;;13.00;82.50;;;;;;6126582;23;20501;-79
2023/03/09 07:42:01;;;;;;;27.50;4.10;;;13.00;82.40;;;;;;6126457;23;20002;-80
2023/03/09 07:44:28;;;;;;;22.50;3.78;;;13.10;82.40;;;;;;6101431;23;20028;-78
2023/03/09 07:46:54;;;;;;;27.02;5.05;;;13.30;81.80;;;;;;6099600;23;20097;-79
2023/03/09 07:49:19;;;;;;;15.15;3.35;;;13.40;81.30;;;;;;6120272;23;20088;-79
2023/03/09 07:51:45;;;;;;;22.67;3.88;;;13.30;81.10;;;;;;6123301;23;20006;-79
2023/03/09 07:54:11;;;;;;;21.30;4.57;;;13.30;81.20;;;;;;6126965;23;20065;-81
2023/03/09 07:56:36;;;;;;;16.25;3.08;;;13.30;81.30;;;;;;6125759;23;20006;-80
2023/03/09 07:59:02;;;;;;;30.58;4.72;;;13.30;81.30;;;;;;6126641;23;20033;-80
2023/03/09 08:01:29;;;;;;;27.25;4.88;;;13.30;81.50;;;;;;6102043;23;20021;-80
2023/03/09 08:03:55;;;;;;;18.83;4.10;;;13.30;81.70;;;;;;6127110;23;20390;-80
2023/03/09 08:06:21;;;;;;;24.60;3.90;;;13.40;81.40;;;;;;6125348;23;20049;-79
2023/03/09 08:08:46;;;;;;;26.20;4.22;;;14.20;79.80;;;;;;6126927;23;20064;-79
2023/03/09 08:11:12;;;;;;;14.85;3.35;;;14.40;79.10;;;;;;6127803;23;20002;-79
2023/03/09 08:13:38;;;;;;;23.48;4.30;;;14.30;78.90;;;;;;6102407;23;20453;-79
2023/03/09 08:16:07;;;;;;;21.88;3.90;;;14.00;79.50;;;;;;6127843;23;20010;-79
2023/03/09 08:18:33;;;;;;;12.55;2.28;;;13.80;79.70;;;;;;6127378;23;20084;-79
2023/03/09 08:21:11;;;;;;;17.77;3.85;;;13.80;79.90;;;;;;6102297;23;20018;-80
2023/03/09 08:23:39;;;;;;;20.98;4.55;;;13.70;80.30;;;;;;6127161;23;20068;-79
2023/03/09 08:26:13;;;;;;;14.20;3.55;;;13.70;80.50;;;;;;6127757;23;20079;-79
2023/03/09 08:28:41;;;;;;;15.20;2.85;;;13.70;80.60;;;;;;6127195;23;20009;-80
2023/03/09 08:31:09;;;;;;;31.38;5.35;;;13.70;80.80;;;;;;6127160;23;20049;-79
2023/03/09 08:33:34;;;;;;;21.13;3.50;;;13.70;80.90;;;;;;6128022;23;20001;-79
2023/03/09 08:36:17;;;;;;;23.83;4.55;;;13.70;80.90;;;;;;6127512;23;20041;-79
2023/03/09 08:38:44;;;;;;;28.80;4.55;;;14.00;80.50;;;;;;6126894;23;20064;-79
2023/03/09 08:41:10;;;;;;;23.27;4.00;;;14.40;79.80;;;;;;6125818;23;20072;-79
2023/03/09 08:43:35;;;;;;;14.32;2.78;;;14.60;79.20;;;;;;6126216;23;20033;-79
2023/03/09 08:46:02;;;;;;;23.17;3.97;;;14.50;78.80;;;;;;6101058;23;20010;-80
2023/03/09 08:48:27;;;;;;;22.65;3.40;;;14.40;79.10;;;;;;6100373;23;20006;-79
2023/03/09 08:50:53;;;;;;;17.95;3.03;;;14.30;79.50;;;;;;6100320;23;20010;-80
2023/03/09 08:53:19;;;;;;;30.45;4.95;;;14.30;79.60;;;;;;6127866;23;20102;-80
2023/03/09 08:55:45;;;;;;;13.43;2.92;;;14.20;80.00;;;;;;6122711;23;20005;-80
2023/03/09 08:58:11;;;;;;;24.83;3.65;;;14.10;80.50;;;;;;6123067;23;20002;-80
2023/03/09 09:00:37;;;;;;;17.45;3.95;;;14.00;81.00;;;;;;6128875;23;20013;-80
2023/03/09 09:03:04;;;;;;;15.63;3.88;;;14.20;80.70;;;;;;6129639;23;20009;-81
2023/03/09 09:05:29;;;;;;;18.48;3.08;;;14.10;80.90;;;;;;6103778;23;20010;-80
2023/03/09 09:07:55;;;;;;;22.20;3.90;;;14.10;81.00;;;;;;6129619;23;20017;-80
2023/03/09 09:10:21;;;;;;;22.55;4.13;;;13.90;81.00;;;;;;6120562;23;20001;-81
2023/03/09 09:12:46;;;;;;;21.02;4.40;;;13.90;81.30;;;;;;6127177;23;20006;-81
2023/03/09 09:15:13;;;;;;;19.38;3.92;;;13.90;81.60;;;;;;6128954;23;20501;-81
2023/03/09 09:17:39;;;;;;;21.38;3.65;;;14.30;81.20;;;;;;6129358;23;20473;-81
2023/03/09 09:20:07;;;;;;;20.90;4.10;;;14.80;80.20;;;;;;6103889;23;20056;-78
2023/03/09 09:22:32;;;;;;;16.77;4.28;;;15.20;79.40;;;;;;6129188;23;20077;-79
2023/03/09 09:24:59;;;;;;;20.33;3.60;;;15.20;78.60;;;;;;6128917;23;20045;-81
2023/03/09 09:27:25;;;;;;;18.42;3.47;;;15.00;78.80;;;;;;6128833;23;20082;-80
2023/03/09 09:29:52;;;;;;;25.38;4.50;;;14.90;79.20;;;;;;6103015;23;20010;-85
2023/03/09 09:32:18;;;;;;;25.48;4.57;;;14.70;79.80;;;;;;6124137;23;20437;-80
2023/03/09 09:34:44;;;;;;;30.83;5.00;;;14.50;80.10;;;;;;6127937;23;20010;-79
2023/03/09 09:37:11;;;;;;;27.38;5.38;;;14.40;80.70;;;;;;6129274;23;20001;-79
2023/03/09 09:39:38;;;;;;;14.50;3.08;;;14.40;81.10;;;;;;6128201;23;20006;-79
2023/03/09 09:42:29;;;;;;;18.90;3.92;;;14.50;81.00;;;;;;6128185;23;20006;-80
2023/03/09 09:44:57;;;;;;;20.88;4.10;;;14.50;80.80;;;;;;6108300;23;20009;-80
2023/03/09 09:47:30;;;;;;;24.23;3.88;;;14.50;80.80;;;;;;6128848;23;20077;-79
2023/03/09 09:49:59;;;;;;;14.40;3.22;;;14.50;81.00;;;;;;6129430;23;20049;-80
2023/03/09 09:52:45;;;;;;;23.63;4.18;;;14.40;81.00;;;;;;6128855;23;20006;-81
2023/03/09 09:55:25;;;;;;;15.60;3.45;;;14.40;81.20;;;;;;6128911;23;20060;-80
2023/03/09 09:58:20;;;;;;;24.52;4.50;;;14.40;81.10;;;;;;6127435;23;20002;-79
2023/03/09 10:00:52;;;;;;;23.95;4.38;;;14.50;80.90;;;;;;6129137;23;20006;-79
2023/03/09 10:03:27;;;;;;;29.40;4.68;;;14.60;81.10;;;;;;6128494;23;20077;-79
2023/03/09 10:06:16;;;;;;;16.15;3.28;;;14.70;81.10;;;;;;6128909;23;20575;-78
2023/03/09 10:08:45;;;;;;;19.98;3.50;;;14.90;80.40;;;;;;6129272;23;20464;-78
2023/03/09 10:11:44;;;;;;;14.68;3.45;;;14.90;79.60;;;;;;6128431;23;20002;-78
2023/03/09 10:14:31;;;;;;;18.88;3.80;;;14.90;79.40;;;;;;6128763;23;20014;-79
2023/03/09 10:17:09;;;;;;;23.58;3.83;;;15.00;79.30;;;;;;6128004;23;20007;-79
2023/03/09 10:19:41;;;;;;;19.65;3.85;;;14.80;79.00;;;;;;6129176;23;20005;-80
2023/03/09 10:22:12;;;;;;;19.88;4.28;;;14.80;79.20;;;;;;6129148;23;20050;-79
2023/03/09 10:24:46;;;;;;;27.55;3.92;;;14.70;79.90;;;;;;6128401;23;20012;-80
2023/03/09 10:27:21;;;;;;;23.52;4.50;;;14.60;80.40;;;;;;6127277;23;20001;-80
2023/03/09 10:30:04;;;;;;;18.30;3.92;;;14.50;81.00;;;;;;6128519;23;20022;-80
2023/03/09 10:32:48;;;;;;;17.27;3.42;;;14.50;81.70;;;;;;6126521;23;20018;-81
2023/03/09 10:35:25;;;;;;;15.88;3.40;;;14.50;81.60;;;;;;6128478;23;20085;-80
2023/03/09 10:37:51;;;;;;;14.30;3.72;;;14.40;82.20;;;;;;6128198;23;20002;-80
2023/03/09 10:40:21;;;;;;;22.33;4.13;;;14.40;82.30;;;;;;6128606;23;20002;-80
2023/03/09 10:42:47;;;;;;;14.38;2.75;;;14.50;82.40;;;;;;6127509;23;20061;-80
2023/03/09 10:45:13;;;;;;;11.90;2.35;;;14.50;82.10;;;;;;6126632;23;20351;-80
2023/03/09 10:47:54;;;;;;;20.80;3.50;;;14.50;82.20;;;;;;6127630;23;20041;-80
2023/03/09 10:50:22;;;;;;;9.98;2.03;;;14.50;82.30;;;;;;6127911;23;20002;-80
2023/03/09 10:52:50;;;;;;;15.52;3.08;;;14.40;82.30;;;;;;6127945;23;20008;-80
2023/03/09 10:55:44;;;;;;;10.80;2.55;;;14.40;82.70;;;;;;6127877;23;20038;-80
2023/03/09 10:58:21;;;;;;;9.10;2.45;;;14.30;82.60;;;;;;6121967;23;20672;-80
2023/03/09 11:00:59;;;;;;;22.13;3.60;;;14.40;83.00;;;;;;6128484;23;20006;-80
2023/03/09 11:03:31;;;;;;;14.43;2.78;;;14.60;82.90;;;;;;6127699;23;20004;-80
2023/03/09 11:06:13;;;;;;;5.75;2.15;;;14.80;82.50;;;;;;6126088;23;20010;-80
2023/03/09 11:08:43;;;;;;;12.00;2.72;;;15.20;82.20;;;;;;6128277;23;20002;-79
2023/03/09 11:11:20;;;;;;;7.35;1.85;;;15.80;81.30;;;;;;6128160;23;20032;-80
2023/03/09 11:13:46;;;;;;;7.82;2.17;;;16.20;80.10;;;;;;6127710;23;20009;-81
2023/03/09 11:16:23;;;;;;;6.57;2.58;;;16.30;79.00;;;;;;6125827;23;20009;-79
2023/03/09 11:19:11;;;;;;;12.82;2.40;;;16.30;78.80;;;;;;6127357;23;20290;-78
2023/03/09 11:21:43;;;;;;;10.90;3.17;;;16.20;78.60;;;;;;6128580;23;20054;-78
2023/03/09 11:24:13;;;;;;;21.90;2.58;;;16.00;78.40;;;;;;6128203;23;20006;-78
2023/03/09 11:27:15;;;;;;;;;;;16.00;78.90;;;;;;6128837;23;20006;-78
2023/03/09 11:30:01;;;;;;;12.40;2.78;;;15.90;78.70;;;;;;5986933;23;20016;-78
2023/03/09 11:32:27;;;;;;;15.25;2.65;;;15.70;78.40;;;;;;6120853;23;20041;-78
2023/03/09 11:34:53;;;;;;;15.82;3.28;;;15.60;78.80;;;;;;6126848;23;20013;-79
2023/03/09 11:37:21;;;;;;;11.70;3.00;;;15.50;79.30;;;;;;6128271;23;20001;-79
2023/03/09 11:40:15;;;;;;;18.33;3.78;;;15.50;79.60;;;;;;6128820;23;20033;-78
2023/03/09 11:43:03;;;;;;;21.70;4.25;;;15.70;79.00;;;;;;6116075;23;20002;-80
2023/03/09 11:45:31;;;;;;;19.50;3.50;;;15.80;78.90;;;;;;6128257;23;20042;-78
2023/03/09 11:48:22;;;;;;;10.82;3.00;;;15.90;78.30;;;;;;6128760;23;20002;-80
2023/03/09 11:51:06;;;;;;;14.45;2.60;;;15.70;78.20;;;;;;6128698;23;20030;-78
2023/03/09 11:53:53;;;;;;;16.17;3.20;;;15.60;78.30;;;;;;6128499;23;20006;-77
2023/03/09 11:56:22;;;;;;;17.55;3.15;;;15.50;78.30;;;;;;6128449;23;20382;-79
2023/03/09 11:59:19;;;;;;;14.27;2.92;;;15.50;78.50;;;;;;6126931;23;20283;-79
2023/03/09 12:01:47;;;;;;;14.07;3.25;;;15.50;78.90;;;;;;6089832;23;20002;-77
2023/03/09 12:04:16;;;;;;;13.30;3.08;;;15.40;78.80;;;;;;6128524;23;20002;-81
2023/03/09 12:07:05;;;;;;;15.57;3.00;;;15.30;78.50;;;;;;6126430;23;20338;-79
2023/03/09 12:09:49;;;;;;;20.50;3.15;;;15.10;79.80;;;;;;6128462;23;20006;-81
2023/03/09 12:12:30;;;;;;;23.50;4.63;;;15.10;80.80;;;;;;6128462;23;20002;-77
2023/03/09 12:15:20;;;;;;;14.50;3.88;;;15.10;80.80;;;;;;6128616;23;20095;-82
2023/03/09 12:17:54;;;;;;;16.05;2.75;;;15.20;80.90;;;;;;6127751;23;20002;-82
2023/03/09 12:20:30;;;;;;;16.35;4.03;;;15.30;80.50;;;;;;6128734;23;20499;-82
2023/03/09 12:22:55;;;;;;;20.90;3.50;;;15.70;80.20;;;;;;6128198;23;20002;-82
2023/03/09 12:25:23;;;;;;;14.60;3.30;;;16.00;79.50;;;;;;6126719;23;20016;-83
2023/03/09 12:27:52;;;;;;;22.98;3.58;;;16.10;78.30;;;;;;6127004;23;20016;-83
2023/03/09 12:30:31;;;;;;;17.50;3.72;;;16.10;77.30;;;;;;6128223;23;20002;-80
2023/03/09 12:33:00;;;;;;;25.80;3.17;;;16.00;76.80;;;;;;6102864;23;20040;-82
2023/03/09 12:35:40;;;;;;;11.75;2.63;;;16.20;76.90;;;;;;6104559;23;20040;-82
2023/03/09 12:38:21;;;;;;;23.92;3.65;;;16.30;76.30;;;;;;6103542;23;20006;-81
2023/03/09 12:40:49;;;;;;;9.82;2.75;;;16.20;76.70;;;;;;6130629;23;20008;-83
2023/03/09 12:43:14;;;;;;;19.70;3.50;;;16.10;76.00;;;;;;6130238;23;20002;-85
2023/03/09 12:45:42;;;;;;;17.35;3.60;;;16.30;75.80;;;;;;6104809;23;20088;-84
2023/03/09 12:48:08;;;;;;;21.08;2.78;;;16.20;75.70;;;;;;6130025;23;20006;-83
2023/03/09 12:50:42;;;;;;;14.07;3.05;;;15.90;76.10;;;;;;6130216;23;20013;-82
2023/03/09 12:53:21;;;;;;;14.63;3.72;;;16.00;76.80;;;;;;6130099;23;20002;-82
2023/03/09 12:56:03;;;;;;;18.00;2.60;;;16.00;77.30;;;;;;6129651;23;20001;-82
2023/03/09 12:58:31;;;;;;;28.58;3.05;;;16.00;77.30;;;;;;6129745;23;20002;-83
2023/03/09 13:01:03;;;;;;;16.42;2.80;;;16.00;77.20;;;;;;6103926;23;20006;-83
2023/03/09 13:03:36;;;;;;;14.02;2.58;;;16.00;77.00;;;;;;6130521;23;20009;-82
2023/03/09 13:06:21;;;;;;;18.05;4.10;;;15.80;76.70;;;;;;6104149;23;20006;-86
2023/03/09 13:08:54;;;;;;;25.88;3.40;;;15.70;77.30;;;;;;6129137;23;20010;-82
2023/03/09 13:11:56;;;;;;;14.02;4.68;;;15.50;77.90;;;;;;6130453;23;20129;-84
2023/03/09 13:14:25;;;;;;;13.02;3.05;;;15.50;78.70;;;;;;6073609;23;20010;-82
2023/03/09 13:16:59;;;;;;;22.52;3.58;;;15.50;79.60;;;;;;6129314;23;20002;-82
2023/03/09 13:19:24;;;;;;;12.70;3.05;;;15.60;79.80;;;;;;6104070;23;20006;-82
2023/03/09 13:21:53;;;;;;;11.75;3.83;;;15.60;79.30;;;;;;6129876;23;20002;-83
2023/03/09 13:24:24;;;;;;;15.07;2.42;;;15.70;79.40;;;;;;6130159;23;20008;-83
2023/03/09 13:26:55;;;;;;;17.38;3.17;;;15.70;78.80;;;;;;6129287;23;20442;-83
2023/03/09 13:29:24;;;;;;;10.52;1.83;;;15.70;78.90;;;;;;6129654;23;20006;-83
2023/03/09 13:31:51;;;;;;;15.75;2.78;;;15.70;79.00;;;;;;6129890;23;20041;-83
2023/03/09 13:34:29;;;;;;;16.23;3.75;;;15.60;78.80;;;;;;6103610;23;20516;-83
2023/03/09 13:37:14;;;;;;;13.07;3.05;;;15.60;78.70;;;;;;6130016;23;20001;-83
2023/03/09 13:40:03;;;;;;;19.35;3.95;;;15.50;78.80;;;;;;6103966;23;20042;-82
2023/03/09 13:42:37;;;;;;;11.50;2.50;;;15.40;78.90;;;;;;6103411;23;20037;-83
2023/03/09 13:45:03;;;;;;;13.32;2.67;;;15.60;78.90;;;;;;6102884;23;20002;-83
2023/03/09 13:47:32;;;;;;;14.75;2.92;;;15.80;78.40;;;;;;6129387;23;19998;-83
2023/03/09 13:49:59;;;;;;;12.48;2.22;;;15.80;77.20;;;;;;6129531;23;20013;-83
2023/03/09 13:52:26;;;;;;;11.15;2.63;;;15.80;76.50;;;;;;6129932;23;20030;-84
2023/03/09 13:54:54;;;;;;;9.85;2.88;;;15.80;76.20;;;;;;6129285;23;20080;-83
2023/03/09 13:57:20;;;;;;;14.27;2.20;;;15.80;75.10;;;;;;6103162;23;20009;-84
2023/03/09 13:59:53;;;;;;;7.32;1.38;;;15.80;75.10;;;;;;6129391;23;20034;-83
2023/03/09 14:02:20;;;;;;;12.05;3.08;;;15.70;74.70;;;;;;6098350;23;20005;-84
2023/03/09 14:04:46;;;;;;;8.10;1.60;;;15.70;74.90;;;;;;6102128;23;20002;-83
2023/03/09 14:07:16;;;;;;;5.82;1.55;;;15.60;74.80;;;;;;6102724;23;20077;-82
2023/03/09 14:09:42;;;;;;;5.90;1.42;;;15.50;75.40;;;;;;6103458;23;20006;-83
2023/03/09 14:12:22;;;;;;;7.18;1.65;;;15.50;76.20;;;;;;6128783;23;20029;-82
2023/03/09 14:14:50;;;;;;;7.72;1.35;;;15.30;76.40;;;;;;6128841;23;19998;-84
2023/03/09 14:17:19;;;;;;;7.03;2.10;;;15.40;76.30;;;;;;6129286;23;20480;-83
2023/03/09 14:19:53;;;;;;;11.43;1.98;;;15.50;76.00;;;;;;6102790;23;20002;-83
2023/03/09 14:22:21;;;;;;;9.20;1.80;;;15.50;75.90;;;;;;6102518;23;20497;-83
2023/03/09 14:24:47;;;;;;;3.78;1.20;;;15.40;76.40;;;;;;6102742;23;20010;-82
2023/03/09 14:27:22;;;;;;;6.95;1.90;;;15.20;77.00;;;;;;6129191;23;20002;-82
2023/03/09 14:29:47;;;;;;;7.03;1.90;;;15.20;77.50;;;;;;6102132;23;20006;-83
2023/03/09 14:32:31;;;;;;;7.68;1.75;;;15.20;78.00;;;;;;6128854;23;20022;-83
2023/03/09 14:35:18;;;;;;;8.77;2.30;;;15.10;78.70;;;;;;6102387;23;20014;-83
2023/03/09 14:37:53;;;;;;;5.10;1.80;;;14.90;79.20;;;;;;6128063;23;20008;-83
2023/03/09 14:40:39;;;;;;;11.80;1.90;;;14.80;79.90;;;;;;6100977;23;20006;-83
2023/03/09 14:43:24;;;;;;;9.90;2.08;;;14.70;80.50;;;;;;6128238;23;20006;-83
2023/03/09 14:45:50;;;;;;;5.72;1.80;;;14.70;80.70;;;;;;6128279;23;20006;-83
2023/03/09 14:48:15;;;;;;;6.53;1.60;;;14.60;81.00;;;;;;6128193;23;20342;-83
2023/03/09 14:50:42;;;;;;;11.23;2.03;;;14.50;81.00;;;;;;6127985;23;20014;-83
2023/03/09 14:53:16;;;;;;;5.18;1.35;;;14.50;81.60;;;;;;6125082;23;20350;-82
2023/03/09 14:55:42;;;;;;;4.13;1.05;;;14.30;81.80;;;;;;6125861;23;20001;-83
2023/03/09 14:58:12;;;;;;;7.13;1.65;;;14.30;82.10;;;;;;6101004;23;20002;-82
2023/03/09 15:00:39;;;;;;;5.03;1.60;;;14.40;82.20;;;;;;6126886;23;20002;-83
2023/03/09 15:03:06;;;;;;;10.68;1.92;;;14.30;81.70;;;;;;6101539;23;20105;-82
2023/03/09 15:05:31;;;;;;;7.13;1.17;;;14.30;81.80;;;;;;6126421;23;20767;-83
2023/03/09 15:07:57;;;;;;;4.72;1.63;;;14.30;81.70;;;;;;6101928;23;20100;-82
2023/03/09 15:10:24;;;;;;;9.93;1.63;;;14.40;81.60;;;;;;6101986;23;20017;-82
2023/03/09 15:12:50;;;;;;;5.97;1.63;;;14.40;81.40;;;;;;6127561;23;20017;-82
2023/03/09 15:15:23;;;;;;;6.50;1.45;;;14.40;81.10;;;;;;6101915;23;20021;-82
2023/03/09 15:17:50;;;;;;;5.82;1.00;;;14.40;81.40;;;;;;6101703;23;20009;-82
2023/03/09 15:20:21;;;;;;;4.28;1.52;;;14.40;81.20;;;;;;6126300;23;20005;-81
2023/03/09 15:22:47;;;;;;;9.23;2.05;;;14.50;81.30;;;;;;6102003;23;20053;-82
2023/03/09 15:25:19;;;;;;;7.75;1.80;;;14.50;81.30;;;;;;6128044;23;20049;-82
2023/03/09 15:27:46;;;;;;;6.35;1.55;;;14.60;80.90;;;;;;6100837;23;20010;-82
2023/03/09 15:30:17;;;;;;;15.65;2.45;;;14.60;80.60;;;;;;6101904;23;20006;-82
2023/03/09 15:32:44;;;;;;;11.70;2.20;;;14.50;80.40;;;;;;6126967;23;20326;-82
2023/03/09 15:35:12;;;;;;;9.32;2.60;;;14.50;80.20;;;;;;6127775;23;20441;-82
2023/03/09 15:37:37;;;;;;;13.02;2.17;;;14.50;80.50;;;;;;6126448;23;20037;-83
2023/03/09 15:40:03;;;;;;;7.13;2.08;;;14.50;80.40;;;;;;6100919;23;20069;-83
2023/03/09 15:42:29;;;;;;;8.43;1.40;;;14.50;80.30;;;;;;6101362;23;20009;-83
2023/03/09 15:44:55;;;;;;;10.20;2.15;;;14.60;80.10;;;;;;6128356;23;20437;-83
2023/03/09 15:47:21;;;;;;;5.40;1.50;;;14.70;80.00;;;;;;6102133;23;20034;-83
2023/03/09 15:49:46;;;;;;;15.43;2.53;;;14.70;79.60;;;;;;6128171;23;20006;-83
2023/03/09 15:52:12;;;;;;;6.82;1.70;;;14.80;79.40;;;;;;6128089;23;20009;-84
2023/03/09 15:54:38;;;;;;;11.95;2.15;;;14.80;79.10;;;;;;6127067;23;20045;-84
2023/03/09 15:57:04;;;;;;;10.45;2.33;;;14.80;78.80;;;;;;6127889;23;20005;-83
2023/03/09 15:59:30;;;;;;;9.57;2.15;;;14.70;78.70;;;;;;6100986;23;20005;-83
2023/03/09 16:01:56;;;;;;;12.32;2.38;;;14.80;78.90;;;;;;6128035;23;20029;-84
2023/03/09 16:04:22;;;;;;;13.48;2.67;;;14.70;78.60;;;;;;6128974;23;20629;-83
2023/03/09 16:06:48;;;;;;;11.40;2.42;;;14.60;78.60;;;;;;6128271;23;20002;-84
2023/03/09 16:09:14;;;;;;;16.67;2.53;;;14.70;78.70;;;;;;6131274;23;20009;-83
2023/03/09 16:11:41;;;;;;;9.13;2.08;;;14.70;78.50;;;;;;6104365;23;20034;-83
2023/03/09 16:14:07;;;;;;;10.35;3.08;;;14.70;78.50;;;;;;6130231;23;20017;-81
2023/03/09 16:16:36;;;;;;;10.30;2.28;;;14.70;78.60;;;;;;6107530;23;20006;-82
2023/03/09 16:19:04;;;;;;;9.50;2.35;;;14.60;78.80;;;;;;6107060;23;20009;-82
2023/03/09 16:21:37;;;;;;;13.93;2.35;;;14.50;79.20;;;;;;6130248;23;20014;-81
2023/03/09 16:24:03;;;;;;;10.57;2.50;;;14.30;79.70;;;;;;6131234;23;20057;-81
2023/03/09 16:26:29;;;;;;;18.48;2.92;;;14.40;79.70;;;;;;6105632;23;20010;-81
2023/03/09 16:28:54;;;;;;;14.18;2.40;;;14.30;79.70;;;;;;6105413;23;20010;-81
2023/03/09 16:31:25;;;;;;;17.25;3.78;;;14.40;79.60;;;;;;6131244;23;20014;-81
2023/03/09 16:34:05;;;;;;;6.20;1.73;;;14.50;79.30;;;;;;6106123;23;20020;-80
2023/03/09 16:36:31;;;;;;;11.63;3.50;;;14.50;79.00;;;;;;6104410;23;20009;-81
2023/03/09 16:39:00;;;;;;;15.30;2.22;;;14.50;79.20;;;;;;6131425;23;20029;-81
2023/03/09 16:41:27;;;;;;;9.75;2.22;;;14.50;79.30;;;;;;6105535;23;20005;-81
2023/03/09 16:43:52;;;;;;;10.90;2.33;;;14.60;79.60;;;;;;6131963;23;20001;-81
2023/03/09 16:46:21;;;;;;;19.90;3.20;;;14.60;79.40;;;;;;6131239;23;20002;-81
2023/03/09 16:48:47;;;;;;;7.38;2.00;;;14.60;79.60;;;;;;6104993;23;20462;-81
2023/03/09 16:51:16;;;;;;;13.27;2.20;;;14.50;79.80;;;;;;6100796;23;20013;-80
2023/03/09 16:53:42;;;;;;;7.03;1.70;;;14.30;80.30;;;;;;6105722;23;20513;-82
2023/03/09 16:56:10;;;;;;;13.05;2.15;;;14.20;81.00;;;;;;6105272;23;20045;-80
2023/03/09 16:58:39;;;;;;;4.97;1.38;;;14.20;81.30;;;;;;6129668;23;19997;-78
2023/03/09 17:01:17;;;;;;;16.55;2.50;;;14.20;81.00;;;;;;6124359;23;20001;-78
2023/03/09 17:03:43;;;;;;;10.48;2.50;;;14.20;80.80;;;;;;6130325;23;20006;-77
2023/03/09 17:06:14;;;;;;;13.63;2.88;;;14.20;80.80;;;;;;6130211;23;20080;-77
2023/03/09 17:08:39;;;;;;;10.15;2.15;;;14.20;80.70;;;;;;6105222;23;20014;-78
2023/03/09 17:11:13;;;;;;;10.45;2.58;;;14.20;80.30;;;;;;6130025;23;20035;-78
2023/03/09 17:13:41;;;;;;;13.75;2.90;;;14.10;80.20;;;;;;6129621;23;20006;-78
2023/03/09 17:16:06;;;;;;;10.20;3.22;;;14.10;80.40;;;;;;6129796;23;20451;-78
2023/03/09 17:18:32;;;;;;;13.10;2.25;;;14.10;80.30;;;;;;6128346;23;19998;-78
2023/03/09 17:20:58;;;;;;;9.95;3.10;;;14.20;80.30;;;;;;6127954;23;20002;-79
2023/03/09 17:23:23;;;;;;;14.75;2.92;;;14.10;80.40;;;;;;6127441;23;20032;-78
2023/03/09 17:25:49;;;;;;;20.42;4.35;;;14.10;80.60;;;;;;6128412;23;20002;-78
2023/03/09 17:28:14;;;;;;;10.00;2.08;;;14.00;81.00;;;;;;6128812;23;20006;-78
2023/03/09 17:30:40;;;;;;;9.60;2.20;;;14.00;81.60;;;;;;6127456;23;20022;-78
2023/03/09 17:33:06;;;;;;;11.57;3.58;;;13.80;82.20;;;;;;6102406;23;20018;-78
2023/03/09 17:35:32;;;;;;;14.13;2.92;;;13.90;81.90;;;;;;6128588;23;20006;-78
2023/03/09 17:37:59;;;;;;;10.73;2.95;;;13.90;82.00;;;;;;6127684;23;20013;-78
2023/03/09 17:40:25;;;;;;;8.02;2.13;;;13.90;81.80;;;;;;6128012;23;20507;-78
2023/03/09 17:42:50;;;;;;;20.50;2.92;;;13.80;81.70;;;;;;6127668;23;20042;-78
2023/03/09 17:45:18;;;;;;;25.27;4.38;;;13.90;81.90;;;;;;6128616;23;20100;-79
2023/03/09 17:47:44;;;;;;;17.35;4.25;;;13.90;81.70;;;;;;6126489;23;20006;-78
2023/03/09 17:50:10;;;;;;;17.27;3.47;;;13.80;81.50;;;;;;6128048;23;20323;-79
2023/03/09 17:52:36;;;;;;;10.45;2.00;;;13.80;81.60;;;;;;6101209;23;20006;-78
2023/03/09 17:55:02;;;;;;;13.85;3.17;;;13.70;81.50;;;;;;6128221;23;20005;-78
2023/03/09 17:57:27;;;;;;;23.10;3.17;;;13.70;81.50;;;;;;6102911;23;20034;-78
2023/03/09 17:59:53;;;;;;;14.32;4.18;;;13.70;81.40;;;;;;6124771;23;20002;-79
2023/03/09 18:02:19;;;;;;;21.42;3.85;;;13.70;81.30;;;;;;6122230;23;20041;-77
2023/03/09 18:05:05;;;;;;;13.63;3.35;;;13.80;81.10;;;;;;6128509;23;19998;-79
2023/03/09 18:07:32;;;;;;;23.65;3.88;;;13.80;81.00;;;;;;6097145;23;20013;-80
2023/03/09 18:09:58;;;;;;;17.52;3.92;;;13.70;81.20;;;;;;6128514;23;20024;-80
2023/03/09 18:12:25;;;;;;;14.30;2.97;;;13.70;80.90;;;;;;6121950;23;20088;-81
2023/03/09 18:14:51;;;;;;;18.30;3.08;;;13.70;81.00;;;;;;6097567;23;20002;-78
2023/03/09 18:17:17;;;;;;;21.63;3.92;;;13.80;80.60;;;;;;6127022;23;20040;-84
2023/03/09 18:19:43;;;;;;;19.58;5.05;;;13.80;80.50;;;;;;6125639;23;20005;-78
2023/03/09 18:22:15;;;;;;;15.98;4.38;;;13.70;80.20;;;;;;6121223;23;20538;-77